createdAt,value
2018-02-23T00:01:00.058Z,28.75
2018-02-23T00:02:09.264Z,28.74
2018-02-23T00:03:18.471Z,28.74
2018-02-23T00:04:27.218Z,28.85
2018-02-23T00:05:36.442Z,28.84
2018-02-23T00:06:45.383Z,28.64
2018-02-23T00:07:54.592Z,28.75
2018-02-23T00:09:03.553Z,28.85
2018-02-23T00:10:12.584Z,28.93
2018-02-23T00:11:21.797Z,28.84
2018-02-23T00:12:30.758Z,28.84
2018-02-23T00:13:39.467Z,28.84
2018-02-23T00:14:48.962Z,28.85
2018-02-23T00:15:57.914Z,28.84
2018-02-23T00:17:06.948Z,28.84
2018-02-23T00:18:15.636Z,28.93
2018-02-23T00:19:25.111Z,29.03
2018-02-23T00:20:34.054Z,28.93
2018-02-23T00:21:43.030Z,28.93
2018-02-23T00:22:51.790Z,28.93
2018-02-23T00:24:01.556Z,28.93
2018-02-23T00:25:10.230Z,28.93
2018-02-23T00:26:19.611Z,28.93
2018-02-23T00:27:28.637Z,28.93
2018-02-23T00:28:37.593Z,29.03
2018-02-23T00:29:46.782Z,28.93
2018-02-23T00:30:56.012Z,29.03
2018-02-23T00:32:05.102Z,29.03
2018-02-23T00:33:14.103Z,29.03
2018-02-23T00:34:23.149Z,28.93
2018-02-23T00:35:32.356Z,28.93
2018-02-23T00:36:41.575Z,29.03
2018-02-23T00:37:50.871Z,28.93
2018-02-23T00:39:00.070Z,29.03
2018-02-23T00:40:09.293Z,29.03
2018-02-23T00:41:18.250Z,28.93
2018-02-23T00:42:27.458Z,29.03
2018-02-23T00:43:36.399Z,28.84
2018-02-23T00:44:45.874Z,28.93
2018-02-23T00:45:54.828Z,28.93
2018-02-23T00:47:04.294Z,28.93
2018-02-23T00:48:13.237Z,29.03
2018-02-23T00:49:22.179Z,29.03
2018-02-23T00:50:31.640Z,29.03
2018-02-23T00:51:40.619Z,28.93
2018-02-23T00:52:49.553Z,28.84
2018-02-23T00:53:58.783Z,28.93
2018-02-23T00:55:07.736Z,28.93
2018-02-23T00:56:16.681Z,28.93
2018-02-23T00:57:25.640Z,29.03
2018-02-23T00:58:34.581Z,29.03
2018-02-23T00:59:43.524Z,28.93
2018-02-23T01:00:52.489Z,28.93
2018-02-23T01:02:01.452Z,29.03
2018-02-23T01:03:10.654Z,28.93
2018-02-23T01:04:19.611Z,28.93
2018-02-23T01:05:28.941Z,28.84
2018-02-23T01:06:38.141Z,28.84
2018-02-23T01:07:47.606Z,29.03
2018-02-23T01:08:57.098Z,29.02
2018-02-23T01:10:06.058Z,28.92
2018-02-23T01:11:15.268Z,28.93
2018-02-23T01:12:24.285Z,29.03
2018-02-23T01:13:33.518Z,28.92
2018-02-23T01:14:42.464Z,28.93
2018-02-23T01:15:51.938Z,28.93
2018-02-23T01:17:00.662Z,28.93
2018-02-23T01:18:09.602Z,29.02
2018-02-23T01:19:18.286Z,28.93
2018-02-23T01:20:27.294Z,28.92
2018-02-23T01:21:36.263Z,28.93
2018-02-23T01:22:45.754Z,29.02
2018-02-23T01:23:54.961Z,29.03
2018-02-23T01:25:04.456Z,29.03
2018-02-23T01:26:13.671Z,28.92
2018-02-23T01:27:22.902Z,29.03
2018-02-23T01:28:32.114Z,28.93
2018-02-23T01:29:40.813Z,28.84
2018-02-23T01:30:50.023Z,29.02
2018-02-23T01:31:58.987Z,28.92
2018-02-23T01:33:07.937Z,28.82
2018-02-23T01:34:17.414Z,29.02
2018-02-23T01:35:26.355Z,28.92
2018-02-23T01:36:35.582Z,28.92
2018-02-23T01:37:44.347Z,28.92
2018-02-23T01:38:53.296Z,29.02
2018-02-23T01:40:02.514Z,28.92
2018-02-23T01:41:11.457Z,29.02
2018-02-23T01:42:20.400Z,28.92
2018-02-23T01:43:29.344Z,28.82
2018-02-23T01:44:38.048Z,28.82
2018-02-23T01:45:47.249Z,28.92
2018-02-23T01:46:56.453Z,28.92
2018-02-23T01:48:05.685Z,29.02
2018-02-23T01:49:14.910Z,28.82
2018-02-23T01:50:23.872Z,29.02
2018-02-23T01:51:32.824Z,28.82
2018-02-23T01:52:42.026Z,28.92
2018-02-23T01:53:51.530Z,28.92
2018-02-23T01:55:00.475Z,28.82
2018-02-23T01:56:09.952Z,28.92
2018-02-23T01:57:19.452Z,29.02
2018-02-23T01:58:28.662Z,29.02
2018-02-23T01:59:38.667Z,28.82
2018-02-23T02:00:48.134Z,28.82
2018-02-23T02:01:57.337Z,28.92
2018-02-23T02:03:06.303Z,28.82
2018-02-23T02:04:15.035Z,28.82
2018-02-23T02:05:24.268Z,29.02
2018-02-23T02:06:33.522Z,29.02
2018-02-23T02:07:42.750Z,29.02
2018-02-23T02:08:52.241Z,28.82
2018-02-23T02:10:01.450Z,28.92
2018-02-23T02:11:10.666Z,28.92
2018-02-23T02:12:19.337Z,28.92
2018-02-23T02:13:29.089Z,28.92
2018-02-23T02:14:38.313Z,28.92
2018-02-23T02:15:47.001Z,29.02
2018-02-23T02:16:55.691Z,28.92
2018-02-23T02:18:04.655Z,28.82
2018-02-23T02:19:14.105Z,29.02
2018-02-23T02:20:23.341Z,28.92
2018-02-23T02:21:32.050Z,29.02
2018-02-23T02:22:41.017Z,28.92
2018-02-23T02:23:50.075Z,29.02
2018-02-23T02:24:59.540Z,29.02
2018-02-23T02:26:08.771Z,29.02
2018-02-23T02:27:17.967Z,28.92
2018-02-23T02:28:26.891Z,29.02
2018-02-23T02:29:36.405Z,28.92
2018-02-23T02:30:45.362Z,29.02
2018-02-23T02:31:55.128Z,29.02
2018-02-23T02:33:04.335Z,28.92
2018-02-23T02:34:13.996Z,28.92
2018-02-23T02:35:23.210Z,29.02
2018-02-23T02:36:32.152Z,29.02
2018-02-23T02:37:41.412Z,28.92
2018-02-23T02:38:50.923Z,28.82
2018-02-23T02:39:59.880Z,28.92
2018-02-23T02:41:09.083Z,28.92
2018-02-23T02:42:18.844Z,29.02
2018-02-23T02:43:27.795Z,29.02
2018-02-23T02:44:36.751Z,28.92
2018-02-23T02:45:46.235Z,28.92
2018-02-23T02:46:55.706Z,29.02
2018-02-23T02:48:04.938Z,28.92
2018-02-23T02:49:13.890Z,28.92
2018-02-23T02:50:23.112Z,28.92
2018-02-23T02:51:32.316Z,29
2018-02-23T02:52:41.837Z,29.02
2018-02-23T02:53:51.616Z,29.02
2018-02-23T02:55:00.843Z,28.92
2018-02-23T02:56:10.332Z,28.92
2018-02-23T02:57:19.302Z,28.92
2018-02-23T02:58:28.814Z,29.02
2018-02-23T02:59:37.781Z,28.92
2018-02-23T03:00:46.988Z,28.92
2018-02-23T03:01:56.232Z,28.91
2018-02-23T03:03:05.719Z,29
2018-02-23T03:04:15.197Z,28.92
2018-02-23T03:05:24.402Z,29
2018-02-23T03:06:33.349Z,29
2018-02-23T03:07:42.024Z,29.02
2018-02-23T03:08:50.730Z,28.92
2018-02-23T03:09:59.941Z,28.91
2018-02-23T03:11:09.414Z,29
2018-02-23T03:12:18.414Z,29.02
2018-02-23T03:13:27.629Z,28.92
2018-02-23T03:14:36.591Z,29.02
2018-02-23T03:15:45.552Z,28.92
2018-02-23T03:16:54.259Z,28.92
2018-02-23T03:18:03.756Z,28.92
2018-02-23T03:19:12.741Z,28.92
2018-02-23T03:20:21.968Z,28.92
2018-02-23T03:21:30.910Z,29
2018-02-23T03:22:40.109Z,28.92
2018-02-23T03:23:48.872Z,29.02
2018-02-23T03:24:58.087Z,28.92
2018-02-23T03:26:06.781Z,28.91
2018-02-23T03:27:15.464Z,28.91
2018-02-23T03:28:24.179Z,29
2018-02-23T03:29:32.960Z,28.91
2018-02-23T03:30:41.921Z,28.91
2018-02-23T03:31:50.903Z,28.91
2018-02-23T03:32:59.600Z,28.81
2018-02-23T03:34:08.299Z,29
2018-02-23T03:35:17.568Z,28.81
2018-02-23T03:36:26.477Z,28.91
2018-02-23T03:37:35.182Z,29
2018-02-23T03:38:43.862Z,28.81
2018-02-23T03:39:53.066Z,28.91
2018-02-23T03:41:01.844Z,28.91
2018-02-23T03:42:10.856Z,28.91
2018-02-23T03:43:20.362Z,28.91
2018-02-23T03:44:29.576Z,28.91
2018-02-23T03:45:38.791Z,29
2018-02-23T03:46:47.746Z,28.81
2018-02-23T03:47:57.271Z,29
2018-02-23T03:49:06.218Z,29
2018-02-23T03:50:15.171Z,29
2018-02-23T03:51:24.104Z,28.91
2018-02-23T03:52:32.866Z,29
2018-02-23T03:53:42.338Z,29
2018-02-23T03:54:52.007Z,29
2018-02-23T03:56:01.471Z,28.91
2018-02-23T03:57:10.726Z,28.91
2018-02-23T03:58:19.941Z,28.91
2018-02-23T03:59:29.183Z,28.91
2018-02-23T04:00:38.402Z,28.91
2018-02-23T04:01:47.345Z,28.81
2018-02-23T04:02:56.553Z,29
2018-02-23T04:04:05.517Z,29
2018-02-23T04:05:14.258Z,29
2018-02-23T04:06:23.180Z,28.91
2018-02-23T04:07:32.124Z,28.91
2018-02-23T04:08:41.089Z,29
2018-02-23T04:09:50.355Z,28.81
2018-02-23T04:10:59.297Z,28.91
2018-02-23T04:12:07.988Z,28.91
2018-02-23T04:13:16.684Z,28.91
2018-02-23T04:14:25.383Z,28.81
2018-02-23T04:15:34.607Z,29
2018-02-23T04:16:43.324Z,29
2018-02-23T04:17:52.519Z,28.81
2018-02-23T04:19:01.473Z,29
2018-02-23T04:20:10.498Z,28.91
2018-02-23T04:21:19.458Z,28.81
2018-02-23T04:22:28.680Z,28.91
2018-02-23T04:23:37.657Z,28.81
2018-02-23T04:24:47.165Z,28.81
2018-02-23T04:25:56.371Z,28.81
2018-02-23T04:27:05.319Z,28.91
2018-02-23T04:28:14.269Z,28.81
2018-02-23T04:29:23.506Z,28.81
2018-02-23T04:30:32.479Z,28.81
2018-02-23T04:31:41.724Z,28.81
2018-02-23T04:32:50.435Z,28.81
2018-02-23T04:33:59.112Z,28.81
2018-02-23T04:35:08.377Z,28.91
2018-02-23T04:36:17.137Z,28.91
2018-02-23T04:37:26.085Z,28.81
2018-02-23T04:38:35.594Z,28.91
2018-02-23T04:39:44.561Z,28.81
2018-02-23T04:40:53.528Z,28.91
2018-02-23T04:42:02.472Z,28.81
2018-02-23T04:43:11.426Z,28.81
2018-02-23T04:44:20.378Z,28.91
2018-02-23T04:45:29.360Z,28.91
2018-02-23T04:46:39.112Z,28.91
2018-02-23T04:47:47.858Z,28.81
2018-02-23T04:48:57.110Z,28.91
2018-02-23T04:50:06.369Z,28.81
2018-02-23T04:51:15.388Z,28.81
2018-02-23T04:52:24.606Z,28.81
2018-02-23T04:53:33.553Z,28.81
2018-02-23T04:54:42.516Z,28.81
2018-02-23T04:55:51.479Z,28.81
2018-02-23T04:57:00.480Z,28.81
2018-02-23T04:58:09.452Z,28.81
2018-02-23T04:59:18.432Z,28.81
2018-02-23T05:00:27.398Z,28.81
2018-02-23T05:01:36.108Z,28.81
2018-02-23T05:02:45.053Z,28.91
2018-02-23T05:03:54.528Z,28.79
2018-02-23T05:05:04.080Z,29
2018-02-23T05:06:13.012Z,28.91
2018-02-23T05:07:22.217Z,28.71
2018-02-23T05:08:31.474Z,28.81
2018-02-23T05:09:40.450Z,28.71
2018-02-23T05:10:49.682Z,28.61
2018-02-23T05:11:58.924Z,28.81
2018-02-23T05:13:08.159Z,28.61
2018-02-23T05:14:17.372Z,28.61
2018-02-23T05:15:26.592Z,28.61
2018-02-23T05:16:35.698Z,28.61
2018-02-23T05:17:44.707Z,28.61
2018-02-23T05:18:54.193Z,28.61
2018-02-23T05:20:03.182Z,28.61
2018-02-23T05:21:11.861Z,28.81
2018-02-23T05:22:20.571Z,28.61
2018-02-23T05:23:30.096Z,28.61
2018-02-23T05:24:39.171Z,28.61
2018-02-23T05:25:48.178Z,28.6
2018-02-23T05:26:57.138Z,28.61
2018-02-23T05:28:06.628Z,28.71
2018-02-23T05:29:16.124Z,28.6
2018-02-23T05:30:25.070Z,28.71
2018-02-23T05:31:34.015Z,28.61
2018-02-23T05:32:42.976Z,28.61
2018-02-23T05:33:51.683Z,28.61
2018-02-23T05:35:01.234Z,28.7
2018-02-23T05:36:10.442Z,28.7
2018-02-23T05:37:19.147Z,28.7
2018-02-23T05:38:28.118Z,28.71
2018-02-23T05:39:37.087Z,28.71
2018-02-23T05:40:46.061Z,28.41
2018-02-23T05:41:55.548Z,28.7
2018-02-23T05:43:04.241Z,28.31
2018-02-23T05:44:13.201Z,28.7
2018-02-23T05:45:22.433Z,28.71
2018-02-23T05:46:31.627Z,28.7
2018-02-23T05:47:40.854Z,28.71
2018-02-23T05:48:49.797Z,28.7
2018-02-23T05:49:59.026Z,28.31
2018-02-23T05:51:08.006Z,28.7
2018-02-23T05:52:16.745Z,28.7
2018-02-23T05:53:25.440Z,28.79
2018-02-23T05:54:34.388Z,28.7
2018-02-23T05:55:43.330Z,28.41
2018-02-23T05:56:52.020Z,28.52
2018-02-23T05:58:00.952Z,28.41
2018-02-23T05:59:10.530Z,28.5
2018-02-23T06:00:20.017Z,28.5
2018-02-23T06:01:28.995Z,28.41
2018-02-23T06:02:37.722Z,28.41
2018-02-23T06:03:46.679Z,28.5
2018-02-23T06:04:55.903Z,28.6
2018-02-23T06:06:05.111Z,28.41
2018-02-23T06:07:14.053Z,28.41
2018-02-23T06:08:23.024Z,28.6
2018-02-23T06:09:32.754Z,28.5
2018-02-23T06:10:41.705Z,28.5
2018-02-23T06:11:50.668Z,28.5
2018-02-23T06:12:59.886Z,28.41
2018-02-23T06:14:09.107Z,28.5
2018-02-23T06:15:18.052Z,28.6
2018-02-23T06:16:27.258Z,28.41
2018-02-23T06:17:36.464Z,28.5
2018-02-23T06:18:45.394Z,28.6
2018-02-23T06:19:54.082Z,28.5
2018-02-23T06:21:02.768Z,28.5
2018-02-23T06:22:11.746Z,28.41
2018-02-23T06:23:20.444Z,28.5
2018-02-23T06:24:29.142Z,28.6
2018-02-23T06:25:38.081Z,28.6
2018-02-23T06:26:47.023Z,28.6
2018-02-23T06:27:55.971Z,28.79
2018-02-23T06:29:05.176Z,28.7
2018-02-23T06:30:14.664Z,28.6
2018-02-23T06:31:23.605Z,28.6
2018-02-23T06:32:32.280Z,28.7
2018-02-23T06:33:41.229Z,28.7
2018-02-23T06:34:50.779Z,28.7
2018-02-23T06:35:59.759Z,28.7
2018-02-23T06:37:09.005Z,28.6
2018-02-23T06:38:18.236Z,28.6
2018-02-23T06:39:27.714Z,28.6
2018-02-23T06:40:36.397Z,28.7
2018-02-23T06:41:45.881Z,28.41
2018-02-23T06:42:54.892Z,28.41
2018-02-23T06:44:03.863Z,28.41
2018-02-23T06:45:12.818Z,28.41
2018-02-23T06:46:21.764Z,28.41
2018-02-23T06:47:31.264Z,28.41
2018-02-23T06:48:40.526Z,28.41
2018-02-23T06:49:50.345Z,28.6
2018-02-23T06:50:59.555Z,28.41
2018-02-23T06:52:08.766Z,28.41
2018-02-23T06:53:17.727Z,28.5
2018-02-23T06:54:26.949Z,28.5
2018-02-23T06:55:36.442Z,28.41
2018-02-23T06:56:45.681Z,28.41
2018-02-23T06:57:54.890Z,28.6
2018-02-23T06:59:03.586Z,28.5
2018-02-23T07:00:12.809Z,28.52
2018-02-23T07:01:22.118Z,28.5
2018-02-23T07:02:31.077Z,28.31
2018-02-23T07:03:40.018Z,28.31
2018-02-23T07:04:49.288Z,28.41
2018-02-23T07:05:58.423Z,28.31
2018-02-23T07:07:07.553Z,28.41
2018-02-23T07:08:16.539Z,28.31
2018-02-23T07:09:25.284Z,28.41
2018-02-23T07:10:34.501Z,28.31
2018-02-23T07:11:43.459Z,28.31
2018-02-23T07:12:52.999Z,28.33
2018-02-23T07:14:02.225Z,28.31
2018-02-23T07:15:11.214Z,28.22
2018-02-23T07:16:20.175Z,28.22
2018-02-23T07:17:29.399Z,28.22
2018-02-23T07:18:38.085Z,28.23
2018-02-23T07:19:47.044Z,28.22
2018-02-23T07:20:56.007Z,28.33
2018-02-23T07:22:04.728Z,28.33
2018-02-23T07:23:13.956Z,28.33
2018-02-23T07:24:22.950Z,28.22
2018-02-23T07:25:32.440Z,28.14
2018-02-23T07:26:41.655Z,28.23
2018-02-23T07:27:50.877Z,28.23
2018-02-23T07:29:00.090Z,28.23
2018-02-23T07:30:09.055Z,28.22
2018-02-23T07:31:18.001Z,28.23
2018-02-23T07:32:27.205Z,28.23
2018-02-23T07:33:35.888Z,28.12
2018-02-23T07:34:44.681Z,28.33
2018-02-23T07:35:53.381Z,28.23
2018-02-23T07:37:02.328Z,28.23
2018-02-23T07:38:11.288Z,28.03
2018-02-23T07:39:20.762Z,28.33
2018-02-23T07:40:29.965Z,28.33
2018-02-23T07:41:38.916Z,28.22
2018-02-23T07:42:48.128Z,28.14
2018-02-23T07:43:57.122Z,28.23
2018-02-23T07:45:05.866Z,27.84
2018-02-23T07:46:15.645Z,28.04
2018-02-23T07:47:24.894Z,27.84
2018-02-23T07:48:33.838Z,28.04
2018-02-23T07:49:42.797Z,28.04
2018-02-23T07:50:51.539Z,28.14
2018-02-23T07:52:00.786Z,28.04
2018-02-23T07:53:09.759Z,28.14
2018-02-23T07:54:18.468Z,28.14
2018-02-23T07:55:27.436Z,28.14
2018-02-23T07:56:36.710Z,27.94
2018-02-23T07:57:46.196Z,27.75
2018-02-23T07:58:55.178Z,27.66
2018-02-23T08:00:04.129Z,27.75
2018-02-23T08:01:13.360Z,27.75
2018-02-23T08:02:22.972Z,27.75
2018-02-23T08:03:32.458Z,27.66
2018-02-23T08:04:41.683Z,27.75
2018-02-23T08:05:50.921Z,27.66
2018-02-23T08:06:59.921Z,27.58
2018-02-23T08:08:08.875Z,27.37
2018-02-23T08:09:18.349Z,27.28
2018-02-23T08:10:27.602Z,27.19
2018-02-23T08:11:36.287Z,27.19
2018-02-23T08:12:45.380Z,27.19
2018-02-23T08:13:54.664Z,26.9
2018-02-23T08:15:03.634Z,26.81
2018-02-23T08:16:13.374Z,26.92
2018-02-23T08:17:22.074Z,26.92
2018-02-23T08:18:31.313Z,26.53
2018-02-23T08:19:40.206Z,26.34
2018-02-23T08:20:49.439Z,26.72
2018-02-23T08:21:58.389Z,26.34
2018-02-23T08:23:07.760Z,26.62
2018-02-23T08:24:17.783Z,26.45
2018-02-23T08:25:28.062Z,26.25
2018-02-23T08:26:37.177Z,26.16
2018-02-23T08:27:46.399Z,26.35
2018-02-23T08:28:55.688Z,26.25
2018-02-23T08:30:04.954Z,26.06
2018-02-23T08:31:14.423Z,26.06
2018-02-23T08:32:23.474Z,25.78
2018-02-23T08:33:32.428Z,25.68
2018-02-23T08:34:41.098Z,25.79
2018-02-23T08:35:50.574Z,25.79
2018-02-23T08:36:59.626Z,25.98
2018-02-23T08:38:08.608Z,26.07
2018-02-23T08:39:17.299Z,26.07
2018-02-23T08:40:25.984Z,26.07
2018-02-23T08:41:35.298Z,25.79
2018-02-23T08:42:44.804Z,25.88
2018-02-23T08:43:53.553Z,25.79
2018-02-23T08:45:02.312Z,25.59
2018-02-23T08:46:11.741Z,25.69
2018-02-23T08:47:21.239Z,25.59
2018-02-23T08:48:30.188Z,25.49
2018-02-23T08:49:39.161Z,25.42
2018-02-23T08:50:48.101Z,25.42
2018-02-23T08:51:56.845Z,25.51
2018-02-23T08:53:05.784Z,25.51
2018-02-23T08:54:14.525Z,25.42
2018-02-23T08:55:23.710Z,25.42
2018-02-23T08:56:32.671Z,25.6
2018-02-23T08:57:41.656Z,25.51
2018-02-23T08:58:50.644Z,25.6
2018-02-23T08:59:59.847Z,25.42
2018-02-23T09:01:09.057Z,25.32
2018-02-23T09:02:18.027Z,25.32
2018-02-23T09:03:27.232Z,25.32
2018-02-23T09:04:36.466Z,25.43
2018-02-23T09:05:45.448Z,25.42
2018-02-23T09:06:54.426Z,25.43
2018-02-23T09:08:03.914Z,25.13
2018-02-23T09:09:13.139Z,25.12
2018-02-23T09:10:22.895Z,25.13
2018-02-23T09:11:31.845Z,25.23
2018-02-23T09:12:40.882Z,25.23
2018-02-23T09:13:49.634Z,25.13
2018-02-23T09:14:58.631Z,25.04
2018-02-23T09:16:07.860Z,25.04
2018-02-23T09:17:16.622Z,25.13
2018-02-23T09:18:25.640Z,24.95
2018-02-23T09:19:34.900Z,24.85
2018-02-23T09:20:43.904Z,24.96
2018-02-23T09:21:53.172Z,24.86
2018-02-23T09:23:02.651Z,24.76
2018-02-23T09:24:11.738Z,24.76
2018-02-23T09:25:20.757Z,24.67
2018-02-23T09:26:30.076Z,24.57
2018-02-23T09:27:39.122Z,24.57
2018-02-23T09:28:47.823Z,24.67
2018-02-23T09:29:57.033Z,24.57
2018-02-23T09:31:06.340Z,24.57
2018-02-23T09:32:15.098Z,24.57
2018-02-23T09:33:24.083Z,24.58
2018-02-23T09:34:33.341Z,24.68
2018-02-23T09:35:42.805Z,24.58
2018-02-23T09:36:51.765Z,24.39
2018-02-23T09:38:00.705Z,24.49
2018-02-23T09:39:09.737Z,24.29
2018-02-23T09:40:18.712Z,24.49
2018-02-23T09:41:27.944Z,24.29
2018-02-23T09:42:37.203Z,24.39
2018-02-23T09:43:46.665Z,24.49
2018-02-23T09:44:55.885Z,24.39
2018-02-23T09:46:04.866Z,24.39
2018-02-23T09:47:14.444Z,24.39
2018-02-23T09:48:23.689Z,24.39
2018-02-23T09:49:32.654Z,24.39
2018-02-23T09:50:41.459Z,24.68
2018-02-23T09:51:50.467Z,24.5
2018-02-23T09:53:00.247Z,24.68
2018-02-23T09:54:08.935Z,24.58
2018-02-23T09:55:18.411Z,24.68
2018-02-23T09:56:27.606Z,24.77
2018-02-23T09:57:36.832Z,24.68
2018-02-23T09:58:46.116Z,24.79
2018-02-23T09:59:56.330Z,24.79
2018-02-23T10:01:05.008Z,24.88
2018-02-23T10:02:14.504Z,24.6
2018-02-23T10:03:23.492Z,24.98
2018-02-23T10:04:32.431Z,24.88
2018-02-23T10:05:41.407Z,24.98
2018-02-23T10:06:50.100Z,25.18
2018-02-23T10:07:59.064Z,25.08
2018-02-23T10:09:08.026Z,25.08
2018-02-23T10:10:16.720Z,25.18
2018-02-23T10:11:26.195Z,25.26
2018-02-23T10:12:35.185Z,25.16
2018-02-23T10:13:44.129Z,25.46
2018-02-23T10:14:52.836Z,25.45
2018-02-23T10:16:02.115Z,25.35
2018-02-23T10:17:11.592Z,25.64
2018-02-23T10:18:20.815Z,25.64
2018-02-23T10:19:29.830Z,25.55
2018-02-23T10:20:38.683Z,25.64
2018-02-23T10:21:48.663Z,25.74
2018-02-23T10:22:57.935Z,26.12
2018-02-23T10:24:06.912Z,25.93
2018-02-23T10:25:16.029Z,25.93
2018-02-23T10:26:25.378Z,25.64
2018-02-23T10:27:36.848Z,26.02
2018-02-23T10:28:46.099Z,26.31
2018-02-23T10:29:54.808Z,26.31
2018-02-23T10:31:04.319Z,26.21
2018-02-23T10:32:13.027Z,26.4
2018-02-23T10:33:22.351Z,26.4
2018-02-23T10:34:31.692Z,26.5
2018-02-23T10:35:41.212Z,26.79
2018-02-23T10:36:50.169Z,26.4
2018-02-23T10:37:59.488Z,26.5
2018-02-23T10:39:09.071Z,26.69
2018-02-23T10:40:18.044Z,26.69
2018-02-23T10:41:27.252Z,26.98
2018-02-23T10:42:36.490Z,27.08
2018-02-23T10:43:45.513Z,27.16
2018-02-23T10:44:54.460Z,26.87
2018-02-23T10:46:04.214Z,26.97
2018-02-23T10:47:13.223Z,27.06
2018-02-23T10:48:22.450Z,27.35
2018-02-23T10:49:31.876Z,27.35
2018-02-23T10:50:40.891Z,27.16
2018-02-23T10:51:50.093Z,27.35
2018-02-23T10:52:59.043Z,27.35
2018-02-23T10:54:07.728Z,27.35
2018-02-23T10:55:16.742Z,27.34
2018-02-23T10:56:25.456Z,27.44
2018-02-23T10:57:34.681Z,27.34
2018-02-23T10:58:43.633Z,27.62
2018-02-23T10:59:52.621Z,27.62
2018-02-23T11:01:02.088Z,27.44
2018-02-23T11:02:11.043Z,27.53
2018-02-23T11:03:20.267Z,27.53
2018-02-23T11:04:28.972Z,27.62
2018-02-23T11:05:38.193Z,27.53
2018-02-23T11:06:47.142Z,27.53
2018-02-23T11:07:56.404Z,27.53
2018-02-23T11:09:05.624Z,27.72
2018-02-23T11:10:14.586Z,27.92
2018-02-23T11:11:23.526Z,27.82
2018-02-23T11:12:33.097Z,27.81
2018-02-23T11:13:42.888Z,27.72
2018-02-23T11:14:52.406Z,27.72
2018-02-23T11:16:01.106Z,27.81
2018-02-23T11:17:10.597Z,27.81
2018-02-23T11:18:19.810Z,27.81
2018-02-23T11:19:29.029Z,27.81
2018-02-23T11:20:38.777Z,27.91
2018-02-23T11:21:48.266Z,27.81
2018-02-23T11:22:56.951Z,27.91
2018-02-23T11:24:05.939Z,27.81
2018-02-23T11:25:14.873Z,27.91
2018-02-23T11:26:23.814Z,27.71
2018-02-23T11:27:33.025Z,27.81
2018-02-23T11:28:41.972Z,27.71
2018-02-23T11:29:50.926Z,27.71
2018-02-23T11:31:00.153Z,27.81
2018-02-23T11:32:09.103Z,27.71
2018-02-23T11:33:17.794Z,27.71
2018-02-23T11:34:26.484Z,27.71
2018-02-23T11:35:35.446Z,27.81
2018-02-23T11:36:44.958Z,27.81
2018-02-23T11:37:53.915Z,27.71
2018-02-23T11:39:02.869Z,27.71
2018-02-23T11:40:11.828Z,27.71
2018-02-23T11:41:20.523Z,27.81
2018-02-23T11:42:29.529Z,27.81
2018-02-23T11:43:38.743Z,27.71
2018-02-23T11:44:48.295Z,27.81
2018-02-23T11:45:57.766Z,27.71
2018-02-23T11:47:07.241Z,27.91
2018-02-23T11:48:15.954Z,27.71
2018-02-23T11:49:25.218Z,27.61
2018-02-23T11:50:34.166Z,27.81
2018-02-23T11:51:43.382Z,27.81
2018-02-23T11:52:52.870Z,28.27
2018-02-23T11:54:02.622Z,28.47
2018-02-23T11:55:11.827Z,28.84
2018-02-23T11:56:20.517Z,28.84
2018-02-23T11:57:29.212Z,29.11
2018-02-23T11:58:38.157Z,29.21
2018-02-23T11:59:46.874Z,29.67
2018-02-23T12:00:56.426Z,29.86
2018-02-23T12:02:05.640Z,29.94
2018-02-23T12:03:14.598Z,30.04
2018-02-23T12:04:23.552Z,30.22
2018-02-23T12:05:33.749Z,30.51
2018-02-23T12:06:43.486Z,30.7
2018-02-23T12:07:52.979Z,30.97
2018-02-23T12:09:02.200Z,31.07
2018-02-23T12:10:11.674Z,31.26
2018-02-23T12:11:20.376Z,31.43
2018-02-23T12:12:29.980Z,31.34
2018-02-23T12:13:39.704Z,31.43
2018-02-23T12:14:48.569Z,31.8
2018-02-23T12:15:57.518Z,31.61
2018-02-23T12:17:06.497Z,31.99
2018-02-23T12:18:15.962Z,32.09
2018-02-23T12:19:24.942Z,31.88
2018-02-23T12:20:33.894Z,32.17
2018-02-23T12:21:42.852Z,32.17
2018-02-23T12:22:52.087Z,32.07
2018-02-23T12:24:01.565Z,32.34
2018-02-23T12:25:10.503Z,32.34
2018-02-23T12:26:19.973Z,32.44
2018-02-23T12:27:29.184Z,32.82
2018-02-23T12:28:38.390Z,32.9
2018-02-23T12:29:47.388Z,33
2018-02-23T12:30:56.391Z,33.19
2018-02-23T12:32:05.343Z,33.17
2018-02-23T12:33:14.353Z,33.27
2018-02-23T12:34:23.838Z,32.89
2018-02-23T12:35:32.613Z,33.36
2018-02-23T12:36:41.827Z,33.36
2018-02-23T12:37:51.323Z,33.35
2018-02-23T12:39:00.275Z,33.73
2018-02-23T12:40:09.539Z,33.73
2018-02-23T12:41:18.297Z,33.64
